sensor_id;sensor_type;location;lat;lon;timestamp;P1;durP1;ratioP1;P2;durP2;ratioP2
42196;SDS011;27866;48.146;17.098;2022-09-29T00:00:41;2.22;;;1.20;;
42196;SDS011;27866;48.146;17.098;2022-09-29T00:04:53;1.63;;;1.00;;
42196;SDS011;27866;48.146;17.098;2022-09-29T00:09:04;3.92;;;1.23;;
42196;SDS011;27866;48.146;17.098;2022-09-29T00:13:15;3.10;;;1.40;;
42196;SDS011;27866;48.146;17.098;2022-09-29T00:17:27;0.90;;;0.90;;
42196;SDS011;27866;48.146;17.098;2022-09-29T00:21:38;5.35;;;1.38;;
42196;SDS011;27866;48.146;17.098;2022-09-29T00:25:58;1.40;;;1.00;;
42196;SDS011;27866;48.146;17.098;2022-09-29T00:30:27;2.65;;;1.10;;
42196;SDS011;27866;48.146;17.098;2022-09-29T00:34:38;2.80;;;1.27;;
42196;SDS011;27866;48.146;17.098;2022-09-29T00:38:50;1.40;;;1.05;;
42196;SDS011;27866;48.146;17.098;2022-09-29T00:43:02;2.88;;;1.10;;
42196;SDS011;27866;48.146;17.098;2022-09-29T00:47:14;3.28;;;1.00;;
42196;SDS011;27866;48.146;17.098;2022-09-29T00:51:27;1.20;;;1.00;;
42196;SDS011;27866;48.146;17.098;2022-09-29T00:55:43;1.45;;;1.00;;
42196;SDS011;27866;48.146;17.098;2022-09-29T01:00:08;6.03;;;1.20;;
42196;SDS011;27866;48.146;17.098;2022-09-29T01:04:24;1.85;;;1.20;;
42196;SDS011;27866;48.146;17.098;2022-09-29T01:08:38;1.67;;;0.90;;
42196;SDS011;27866;48.146;17.098;2022-09-29T01:12:54;3.10;;;1.13;;
42196;SDS011;27866;48.146;17.098;2022-09-29T01:17:05;1.48;;;1.08;;
42196;SDS011;27866;48.146;17.098;2022-09-29T01:40:14;1.05;;;0.88;;
42196;SDS011;27866;48.146;17.098;2022-09-29T01:44:45;3.90;;;1.63;;
42196;SDS011;27866;48.146;17.098;2022-09-29T01:49:11;1.80;;;1.10;;
42196;SDS011;27866;48.146;17.098;2022-09-29T01:53:25;1.33;;;1.15;;
42196;SDS011;27866;48.146;17.098;2022-09-29T01:58:28;2.05;;;1.27;;
42196;SDS011;27866;48.146;17.098;2022-09-29T02:06:59;2.50;;;1.23;;
42196;SDS011;27866;48.146;17.098;2022-09-29T02:11:20;1.83;;;1.30;;
42196;SDS011;27866;48.146;17.098;2022-09-29T02:15:32;3.28;;;1.20;;
42196;SDS011;27866;48.146;17.098;2022-09-29T02:19:49;1.98;;;1.20;;
42196;SDS011;27866;48.146;17.098;2022-09-29T02:24:01;4.20;;;1.23;;
42196;SDS011;27866;48.146;17.098;2022-09-29T02:28:13;1.60;;;1.23;;
42196;SDS011;27866;48.146;17.098;2022-09-29T02:32:26;2.88;;;1.40;;
42196;SDS011;27866;48.146;17.098;2022-09-29T02:51:04;1.88;;;1.58;;
42196;SDS011;27866;48.146;17.098;2022-09-29T02:55:42;2.95;;;1.40;;
42196;SDS011;27866;48.146;17.098;2022-09-29T03:00:13;4.38;;;1.50;;
42196;SDS011;27866;48.146;17.098;2022-09-29T03:04:27;2.08;;;1.40;;
42196;SDS011;27866;48.146;17.098;2022-09-29T03:08:39;2.67;;;1.40;;
42196;SDS011;27866;48.146;17.098;2022-09-29T03:12:50;4.60;;;1.63;;
42196;SDS011;27866;48.146;17.098;2022-09-29T03:17:01;4.60;;;1.42;;
42196;SDS011;27866;48.146;17.098;2022-09-29T03:21:12;4.90;;;1.60;;
42196;SDS011;27866;48.146;17.098;2022-09-29T03:25:24;3.33;;;1.40;;
42196;SDS011;27866;48.146;17.098;2022-09-29T03:29:35;3.35;;;1.55;;
42196;SDS011;27866;48.146;17.098;2022-09-29T03:33:47;2.45;;;1.40;;
42196;SDS011;27866;48.146;17.098;2022-09-29T03:37:59;2.85;;;1.38;;
42196;SDS011;27866;48.146;17.098;2022-09-29T03:42:10;2.10;;;1.50;;
42196;SDS011;27866;48.146;17.098;2022-09-29T03:46:21;2.10;;;1.48;;
42196;SDS011;27866;48.146;17.098;2022-09-29T03:50:32;2.78;;;1.48;;
42196;SDS011;27866;48.146;17.098;2022-09-29T03:54:43;3.75;;;1.60;;
42196;SDS011;27866;48.146;17.098;2022-09-29T03:58:55;3.38;;;1.60;;
42196;SDS011;27866;48.146;17.098;2022-09-29T04:03:06;4.00;;;1.88;;
42196;SDS011;27866;48.146;17.098;2022-09-29T04:07:17;2.38;;;1.70;;
42196;SDS011;27866;48.146;17.098;2022-09-29T04:11:28;3.55;;;1.80;;
42196;SDS011;27866;48.146;17.098;2022-09-29T04:15:39;2.88;;;1.80;;
42196;SDS011;27866;48.146;17.098;2022-09-29T04:19:50;2.50;;;1.85;;
42196;SDS011;27866;48.146;17.098;2022-09-29T04:24:02;3.90;;;1.98;;
42196;SDS011;27866;48.146;17.098;2022-09-29T04:28:13;2.75;;;1.73;;
42196;SDS011;27866;48.146;17.098;2022-09-29T04:32:24;4.25;;;1.95;;
42196;SDS011;27866;48.146;17.098;2022-09-29T04:36:35;2.85;;;1.80;;
42196;SDS011;27866;48.146;17.098;2022-09-29T04:40:47;2.08;;;1.65;;
42196;SDS011;27866;48.146;17.098;2022-09-29T04:44:58;3.13;;;2.10;;
42196;SDS011;27866;48.146;17.098;2022-09-29T04:49:09;2.80;;;1.70;;
42196;SDS011;27866;48.146;17.098;2022-09-29T04:53:20;3.13;;;1.88;;
42196;SDS011;27866;48.146;17.098;2022-09-29T04:57:31;4.20;;;1.65;;
42196;SDS011;27866;48.146;17.098;2022-09-29T05:01:43;3.58;;;1.73;;
42196;SDS011;27866;48.146;17.098;2022-09-29T05:05:54;5.32;;;1.80;;
42196;SDS011;27866;48.146;17.098;2022-09-29T05:10:05;3.20;;;1.55;;
42196;SDS011;27866;48.146;17.098;2022-09-29T05:14:18;2.58;;;2.05;;
42196;SDS011;27866;48.146;17.098;2022-09-29T05:18:29;4.63;;;2.00;;
42196;SDS011;27866;48.146;17.098;2022-09-29T05:22:41;3.90;;;1.80;;
42196;SDS011;27866;48.146;17.098;2022-09-29T05:26:52;5.10;;;2.17;;
42196;SDS011;27866;48.146;17.098;2022-09-29T05:31:05;2.28;;;1.80;;
42196;SDS011;27866;48.146;17.098;2022-09-29T05:35:17;3.07;;;1.80;;
42196;SDS011;27866;48.146;17.098;2022-09-29T05:39:29;3.15;;;1.73;;
42196;SDS011;27866;48.146;17.098;2022-09-29T05:47:54;3.30;;;1.92;;
42196;SDS011;27866;48.146;17.098;2022-09-29T05:52:05;3.75;;;1.90;;
42196;SDS011;27866;48.146;17.098;2022-09-29T05:56:21;4.43;;;2.10;;
42196;SDS011;27866;48.146;17.098;2022-09-29T06:00:34;2.20;;;1.60;;
42196;SDS011;27866;48.146;17.098;2022-09-29T06:04:46;2.78;;;1.80;;
42196;SDS011;27866;48.146;17.098;2022-09-29T06:08:57;4.03;;;1.95;;
42196;SDS011;27866;48.146;17.098;2022-09-29T06:13:09;3.15;;;2.00;;
42196;SDS011;27866;48.146;17.098;2022-09-29T06:17:20;3.22;;;2.00;;
42196;SDS011;27866;48.146;17.098;2022-09-29T06:21:31;4.43;;;1.90;;
42196;SDS011;27866;48.146;17.098;2022-09-29T06:25:47;4.65;;;2.10;;
42196;SDS011;27866;48.146;17.098;2022-09-29T06:29:58;5.57;;;2.10;;
42196;SDS011;27866;48.146;17.098;2022-09-29T06:34:09;3.80;;;1.83;;
42196;SDS011;27866;48.146;17.098;2022-09-29T06:38:20;3.80;;;2.03;;
42196;SDS011;27866;48.146;17.098;2022-09-29T06:42:32;4.43;;;1.80;;
42196;SDS011;27866;48.146;17.098;2022-09-29T06:46:43;2.25;;;1.70;;
42196;SDS011;27866;48.146;17.098;2022-09-29T06:50:55;3.00;;;1.63;;
42196;SDS011;27866;48.146;17.098;2022-09-29T06:55:06;4.22;;;1.70;;
42196;SDS011;27866;48.146;17.098;2022-09-29T06:59:17;2.40;;;1.70;;
42196;SDS011;27866;48.146;17.098;2022-09-29T07:03:29;2.25;;;1.70;;
42196;SDS011;27866;48.146;17.098;2022-09-29T07:07:40;4.05;;;1.90;;
42196;SDS011;27866;48.146;17.098;2022-09-29T07:11:51;8.35;;;1.83;;
42196;SDS011;27866;48.146;17.098;2022-09-29T07:16:06;6.60;;;2.13;;
42196;SDS011;27866;48.146;17.098;2022-09-29T07:20:20;6.15;;;1.80;;
42196;SDS011;27866;48.146;17.098;2022-09-29T07:24:31;3.72;;;1.67;;
42196;SDS011;27866;48.146;17.098;2022-09-29T07:28:43;2.20;;;1.60;;
42196;SDS011;27866;48.146;17.098;2022-09-29T07:32:56;3.72;;;1.80;;
42196;SDS011;27866;48.146;17.098;2022-09-29T07:37:07;2.83;;;1.80;;
42196;SDS011;27866;48.146;17.098;2022-09-29T07:41:19;3.63;;;1.60;;
42196;SDS011;27866;48.146;17.098;2022-09-29T07:45:31;2.95;;;1.70;;
42196;SDS011;27866;48.146;17.098;2022-09-29T07:49:43;2.97;;;2.05;;
42196;SDS011;27866;48.146;17.098;2022-09-29T07:53:54;4.53;;;2.13;;
42196;SDS011;27866;48.146;17.098;2022-09-29T07:58:10;3.83;;;1.60;;
42196;SDS011;27866;48.146;17.098;2022-09-29T08:02:21;4.45;;;1.70;;
42196;SDS011;27866;48.146;17.098;2022-09-29T08:06:32;2.80;;;1.88;;
42196;SDS011;27866;48.146;17.098;2022-09-29T08:10:43;6.60;;;1.98;;
42196;SDS011;27866;48.146;17.098;2022-09-29T08:14:55;5.18;;;2.00;;
42196;SDS011;27866;48.146;17.098;2022-09-29T08:19:06;4.63;;;1.95;;
42196;SDS011;27866;48.146;17.098;2022-09-29T08:23:17;4.03;;;1.98;;
42196;SDS011;27866;48.146;17.098;2022-09-29T08:27:30;2.35;;;1.63;;
42196;SDS011;27866;48.146;17.098;2022-09-29T08:31:41;2.65;;;1.70;;
42196;SDS011;27866;48.146;17.098;2022-09-29T08:35:56;7.68;;;2.05;;
42196;SDS011;27866;48.146;17.098;2022-09-29T08:40:09;9.15;;;2.20;;
42196;SDS011;27866;48.146;17.098;2022-09-29T08:44:22;5.10;;;2.50;;
42196;SDS011;27866;48.146;17.098;2022-09-29T08:48:47;5.75;;;2.25;;
42196;SDS011;27866;48.146;17.098;2022-09-29T08:53:01;3.17;;;2.20;;
42196;SDS011;27866;48.146;17.098;2022-09-29T08:57:19;3.05;;;1.88;;
42196;SDS011;27866;48.146;17.098;2022-09-29T09:01:49;5.82;;;2.40;;
42196;SDS011;27866;48.146;17.098;2022-09-29T09:10:56;10.20;;;2.13;;
42196;SDS011;27866;48.146;17.098;2022-09-29T09:15:35;7.47;;;1.75;;
42196;SDS011;27866;48.146;17.098;2022-09-29T09:28:40;6.50;;;1.80;;
42196;SDS011;27866;48.146;17.098;2022-09-29T09:33:04;8.15;;;1.60;;
42196;SDS011;27866;48.146;17.098;2022-09-29T09:41:45;4.38;;;1.58;;
42196;SDS011;27866;48.146;17.098;2022-09-29T09:46:23;5.55;;;1.88;;
42196;SDS011;27866;48.146;17.098;2022-09-29T10:00:41;6.50;;;2.53;;
42196;SDS011;27866;48.146;17.098;2022-09-29T10:05:10;4.35;;;2.42;;
42196;SDS011;27866;48.146;17.098;2022-09-29T10:09:24;4.95;;;2.63;;
42196;SDS011;27866;48.146;17.098;2022-09-29T10:13:35;5.93;;;2.53;;
42196;SDS011;27866;48.146;17.098;2022-09-29T10:17:48;5.15;;;2.47;;
42196;SDS011;27866;48.146;17.098;2022-09-29T10:22:11;5.20;;;2.58;;
42196;SDS011;27866;48.146;17.098;2022-09-29T10:26:29;5.32;;;2.33;;
42196;SDS011;27866;48.146;17.098;2022-09-29T10:30:56;5.05;;;2.50;;
42196;SDS011;27866;48.146;17.098;2022-09-29T10:35:15;4.13;;;2.10;;
42196;SDS011;27866;48.146;17.098;2022-09-29T10:39:49;3.28;;;2.20;;
42196;SDS011;27866;48.146;17.098;2022-09-29T10:44:18;3.75;;;1.80;;
42196;SDS011;27866;48.146;17.098;2022-09-29T10:48:31;2.67;;;1.67;;
42196;SDS011;27866;48.146;17.098;2022-09-29T10:52:48;4.93;;;1.90;;
42196;SDS011;27866;48.146;17.098;2022-09-29T10:57:12;2.10;;;1.50;;
42196;SDS011;27866;48.146;17.098;2022-09-29T11:01:25;5.35;;;2.03;;
42196;SDS011;27866;48.146;17.098;2022-09-29T11:09:58;4.72;;;2.13;;
42196;SDS011;27866;48.146;17.098;2022-09-29T11:14:27;3.67;;;1.98;;
42196;SDS011;27866;48.146;17.098;2022-09-29T11:19:17;4.00;;;1.85;;
42196;SDS011;27866;48.146;17.098;2022-09-29T11:23:33;5.57;;;1.70;;
42196;SDS011;27866;48.146;17.098;2022-09-29T11:32:42;2.70;;;1.70;;
42196;SDS011;27866;48.146;17.098;2022-09-29T11:37:14;2.50;;;1.50;;
42196;SDS011;27866;48.146;17.098;2022-09-29T12:10:20;5.25;;;1.80;;
42196;SDS011;27866;48.146;17.098;2022-09-29T12:14:53;3.53;;;2.00;;
42196;SDS011;27866;48.146;17.098;2022-09-29T12:19:14;4.35;;;1.38;;
42196;SDS011;27866;48.146;17.098;2022-09-29T12:23:28;3.70;;;1.33;;
42196;SDS011;27866;48.146;17.098;2022-09-29T12:27:42;2.03;;;1.30;;
42196;SDS011;27866;48.146;17.098;2022-09-29T12:31:58;2.58;;;1.50;;
42196;SDS011;27866;48.146;17.098;2022-09-29T12:36:26;3.35;;;1.30;;
42196;SDS011;27866;48.146;17.098;2022-09-29T12:50:15;10.65;;;4.80;;
42196;SDS011;27866;48.146;17.098;2022-09-29T12:54:49;6.95;;;3.22;;
42196;SDS011;27866;48.146;17.098;2022-09-29T13:13:22;4.55;;;2.65;;
42196;SDS011;27866;48.146;17.098;2022-09-29T13:22:25;5.35;;;3.25;;
42196;SDS011;27866;48.146;17.098;2022-09-29T13:31:38;3.45;;;2.17;;
42196;SDS011;27866;48.146;17.098;2022-09-29T13:35:51;3.65;;;1.75;;
42196;SDS011;27866;48.146;17.098;2022-09-29T13:40:06;2.85;;;1.40;;
42196;SDS011;27866;48.146;17.098;2022-09-29T13:44:26;4.10;;;2.00;;
42196;SDS011;27866;48.146;17.098;2022-09-29T13:48:45;11.43;;;4.63;;
42196;SDS011;27866;48.146;17.098;2022-09-29T13:53:35;5.45;;;1.75;;
42196;SDS011;27866;48.146;17.098;2022-09-29T13:57:50;3.00;;;1.65;;
42196;SDS011;27866;48.146;17.098;2022-09-29T14:02:16;4.20;;;1.67;;
42196;SDS011;27866;48.146;17.098;2022-09-29T14:06:44;7.80;;;3.28;;
42196;SDS011;27866;48.146;17.098;2022-09-29T14:10:58;5.20;;;2.67;;
42196;SDS011;27866;48.146;17.098;2022-09-29T14:15:22;4.60;;;2.28;;
42196;SDS011;27866;48.146;17.098;2022-09-29T14:28:51;3.20;;;1.60;;
42196;SDS011;27866;48.146;17.098;2022-09-29T14:33:18;2.38;;;1.50;;
42196;SDS011;27866;48.146;17.098;2022-09-29T14:37:36;2.30;;;1.63;;
42196;SDS011;27866;48.146;17.098;2022-09-29T14:41:49;2.65;;;1.60;;
42196;SDS011;27866;48.146;17.098;2022-09-29T14:46:04;4.50;;;1.55;;
42196;SDS011;27866;48.146;17.098;2022-09-29T15:00:27;5.40;;;2.50;;
42196;SDS011;27866;48.146;17.098;2022-09-29T15:04:55;20.88;;;7.28;;
42196;SDS011;27866;48.146;17.098;2022-09-29T15:13:33;3.70;;;1.50;;
42196;SDS011;27866;48.146;17.098;2022-09-29T15:17:52;4.30;;;1.83;;
42196;SDS011;27866;48.146;17.098;2022-09-29T15:26:47;4.95;;;1.80;;
42196;SDS011;27866;48.146;17.098;2022-09-29T15:30:59;16.75;;;4.32;;
42196;SDS011;27866;48.146;17.098;2022-09-29T15:35:24;10.10;;;3.53;;
42196;SDS011;27866;48.146;17.098;2022-09-29T15:48:11;9.50;;;4.47;;
42196;SDS011;27866;48.146;17.098;2022-09-29T15:56:37;6.10;;;3.22;;
42196;SDS011;27866;48.146;17.098;2022-09-29T16:01:08;11.45;;;4.70;;
42196;SDS011;27866;48.146;17.098;2022-09-29T16:05:23;7.63;;;2.40;;
42196;SDS011;27866;48.146;17.098;2022-09-29T16:09:35;4.07;;;2.20;;
42196;SDS011;27866;48.146;17.098;2022-09-29T16:13:48;5.85;;;2.00;;
42196;SDS011;27866;48.146;17.098;2022-09-29T16:22:35;4.70;;;2.50;;
42196;SDS011;27866;48.146;17.098;2022-09-29T16:26:48;5.80;;;2.17;;
42196;SDS011;27866;48.146;17.098;2022-09-29T16:31:03;6.47;;;2.72;;
42196;SDS011;27866;48.146;17.098;2022-09-29T16:40:37;3.83;;;2.50;;
42196;SDS011;27866;48.146;17.098;2022-09-29T16:44:49;6.28;;;2.00;;
42196;SDS011;27866;48.146;17.098;2022-09-29T16:49:01;8.15;;;2.75;;
42196;SDS011;27866;48.146;17.098;2022-09-29T16:53:31;6.38;;;2.70;;
42196;SDS011;27866;48.146;17.098;2022-09-29T16:57:53;5.95;;;2.50;;
42196;SDS011;27866;48.146;17.098;2022-09-29T17:02:17;5.03;;;2.30;;
42196;SDS011;27866;48.146;17.098;2022-09-29T17:06:29;4.88;;;2.30;;
42196;SDS011;27866;48.146;17.098;2022-09-29T17:10:40;6.43;;;2.17;;
42196;SDS011;27866;48.146;17.098;2022-09-29T17:14:51;8.43;;;2.33;;
42196;SDS011;27866;48.146;17.098;2022-09-29T17:19:03;6.43;;;2.53;;
42196;SDS011;27866;48.146;17.098;2022-09-29T17:23:14;6.53;;;2.40;;
42196;SDS011;27866;48.146;17.098;2022-09-29T17:27:26;9.57;;;4.80;;
42196;SDS011;27866;48.146;17.098;2022-09-29T17:31:56;12.55;;;7.13;;
42196;SDS011;27866;48.146;17.098;2022-09-29T17:36:07;12.02;;;4.88;;
42196;SDS011;27866;48.146;17.098;2022-09-29T17:44:58;10.25;;;4.50;;
42196;SDS011;27866;48.146;17.098;2022-09-29T17:49:12;11.60;;;4.75;;
42196;SDS011;27866;48.146;17.098;2022-09-29T17:53:25;5.60;;;3.10;;
42196;SDS011;27866;48.146;17.098;2022-09-29T17:57:36;7.93;;;3.35;;
42196;SDS011;27866;48.146;17.098;2022-09-29T18:01:48;8.77;;;4.05;;
42196;SDS011;27866;48.146;17.098;2022-09-29T18:05:59;12.02;;;4.10;;
42196;SDS011;27866;48.146;17.098;2022-09-29T18:14:51;26.80;;;13.40;;
42196;SDS011;27866;48.146;17.098;2022-09-29T18:19:03;7.15;;;4.13;;
42196;SDS011;27866;48.146;17.098;2022-09-29T18:23:26;5.15;;;2.88;;
42196;SDS011;27866;48.146;17.098;2022-09-29T18:27:37;6.07;;;2.50;;
42196;SDS011;27866;48.146;17.098;2022-09-29T18:31:48;4.25;;;2.22;;
42196;SDS011;27866;48.146;17.098;2022-09-29T18:36:01;4.75;;;2.25;;
42196;SDS011;27866;48.146;17.098;2022-09-29T18:40:12;8.52;;;2.70;;
42196;SDS011;27866;48.146;17.098;2022-09-29T18:44:24;7.15;;;2.88;;
42196;SDS011;27866;48.146;17.098;2022-09-29T18:48:38;5.28;;;2.38;;
42196;SDS011;27866;48.146;17.098;2022-09-29T18:52:51;7.45;;;4.13;;
42196;SDS011;27866;48.146;17.098;2022-09-29T18:57:02;5.97;;;2.97;;
42196;SDS011;27866;48.146;17.098;2022-09-29T19:01:17;6.80;;;3.50;;
42196;SDS011;27866;48.146;17.098;2022-09-29T19:05:35;7.55;;;3.13;;
42196;SDS011;27866;48.146;17.098;2022-09-29T19:09:49;4.20;;;2.67;;
42196;SDS011;27866;48.146;17.098;2022-09-29T19:14:00;5.60;;;3.00;;
42196;SDS011;27866;48.146;17.098;2022-09-29T19:18:14;6.05;;;3.80;;
42196;SDS011;27866;48.146;17.098;2022-09-29T19:22:34;6.60;;;3.58;;
42196;SDS011;27866;48.146;17.098;2022-09-29T19:26:51;17.40;;;7.90;;
42196;SDS011;27866;48.146;17.098;2022-09-29T19:31:03;23.08;;;9.00;;
42196;SDS011;27866;48.146;17.098;2022-09-29T19:35:22;18.13;;;7.25;;
42196;SDS011;27866;48.146;17.098;2022-09-29T19:39:33;15.07;;;6.55;;
42196;SDS011;27866;48.146;17.098;2022-09-29T19:43:45;11.20;;;5.75;;
42196;SDS011;27866;48.146;17.098;2022-09-29T19:47:57;11.45;;;4.95;;
42196;SDS011;27866;48.146;17.098;2022-09-29T19:52:08;7.80;;;3.63;;
42196;SDS011;27866;48.146;17.098;2022-09-29T19:56:19;6.13;;;3.38;;
42196;SDS011;27866;48.146;17.098;2022-09-29T20:00:30;11.63;;;4.70;;
42196;SDS011;27866;48.146;17.098;2022-09-29T20:04:42;6.82;;;3.78;;
42196;SDS011;27866;48.146;17.098;2022-09-29T20:08:53;6.32;;;3.85;;
42196;SDS011;27866;48.146;17.098;2022-09-29T20:13:05;9.90;;;4.57;;
42196;SDS011;27866;48.146;17.098;2022-09-29T20:17:16;8.73;;;4.97;;
42196;SDS011;27866;48.146;17.098;2022-09-29T20:21:27;13.20;;;5.95;;
42196;SDS011;27866;48.146;17.098;2022-09-29T20:25:39;13.18;;;6.93;;
42196;SDS011;27866;48.146;17.098;2022-09-29T20:29:50;13.48;;;7.20;;
42196;SDS011;27866;48.146;17.098;2022-09-29T20:34:01;11.18;;;6.07;;
42196;SDS011;27866;48.146;17.098;2022-09-29T20:38:12;10.23;;;5.85;;
42196;SDS011;27866;48.146;17.098;2022-09-29T20:42:23;10.35;;;5.72;;
42196;SDS011;27866;48.146;17.098;2022-09-29T20:46:34;11.98;;;5.38;;
42196;SDS011;27866;48.146;17.098;2022-09-29T20:50:46;10.55;;;5.85;;
42196;SDS011;27866;48.146;17.098;2022-09-29T20:54:57;11.60;;;5.47;;
42196;SDS011;27866;48.146;17.098;2022-09-29T20:59:14;9.73;;;5.30;;
42196;SDS011;27866;48.146;17.098;2022-09-29T21:03:27;10.25;;;5.32;;
42196;SDS011;27866;48.146;17.098;2022-09-29T21:07:38;11.55;;;5.63;;
42196;SDS011;27866;48.146;17.098;2022-09-29T21:11:51;10.60;;;5.28;;
42196;SDS011;27866;48.146;17.098;2022-09-29T21:16:03;10.38;;;4.70;;
42196;SDS011;27866;48.146;17.098;2022-09-29T21:20:16;10.85;;;5.47;;
42196;SDS011;27866;48.146;17.098;2022-09-29T21:24:27;10.30;;;5.03;;
42196;SDS011;27866;48.146;17.098;2022-09-29T21:28:40;9.25;;;5.60;;
42196;SDS011;27866;48.146;17.098;2022-09-29T21:32:54;13.57;;;6.55;;
42196;SDS011;27866;48.146;17.098;2022-09-29T21:37:05;20.65;;;9.65;;
42196;SDS011;27866;48.146;17.098;2022-09-29T21:41:17;25.80;;;12.27;;
42196;SDS011;27866;48.146;17.098;2022-09-29T21:45:30;16.50;;;8.43;;
42196;SDS011;27866;48.146;17.098;2022-09-29T21:49:41;19.67;;;9.35;;
42196;SDS011;27866;48.146;17.098;2022-09-29T21:53:53;14.73;;;7.65;;
42196;SDS011;27866;48.146;17.098;2022-09-29T21:58:06;12.38;;;6.78;;
42196;SDS011;27866;48.146;17.098;2022-09-29T22:02:17;13.02;;;7.47;;
42196;SDS011;27866;48.146;17.098;2022-09-29T22:06:30;9.93;;;7.60;;
42196;SDS011;27866;48.146;17.098;2022-09-29T22:10:43;10.45;;;7.28;;
42196;SDS011;27866;48.146;17.098;2022-09-29T22:14:59;11.38;;;7.78;;
42196;SDS011;27866;48.146;17.098;2022-09-29T22:19:10;12.18;;;8.05;;
42196;SDS011;27866;48.146;17.098;2022-09-29T22:23:22;12.38;;;7.50;;
42196;SDS011;27866;48.146;17.098;2022-09-29T22:27:33;11.68;;;7.25;;
42196;SDS011;27866;48.146;17.098;2022-09-29T22:31:44;11.05;;;6.63;;
42196;SDS011;27866;48.146;17.098;2022-09-29T22:35:56;16.58;;;7.20;;
42196;SDS011;27866;48.146;17.098;2022-09-29T22:40:07;9.00;;;6.82;;
42196;SDS011;27866;48.146;17.098;2022-09-29T22:44:19;10.27;;;6.07;;
42196;SDS011;27866;48.146;17.098;2022-09-29T22:48:30;7.93;;;6.25;;
42196;SDS011;27866;48.146;17.098;2022-09-29T22:52:41;13.10;;;5.90;;
42196;SDS011;27866;48.146;17.098;2022-09-29T22:56:52;11.52;;;5.90;;
42196;SDS011;27866;48.146;17.098;2022-09-29T23:01:05;7.38;;;5.60;;
42196;SDS011;27866;48.146;17.098;2022-09-29T23:05:22;6.88;;;5.50;;
42196;SDS011;27866;48.146;17.098;2022-09-29T23:09:34;7.68;;;4.78;;
42196;SDS011;27866;48.146;17.098;2022-09-29T23:13:45;10.30;;;4.57;;
42196;SDS011;27866;48.146;17.098;2022-09-29T23:17:56;9.70;;;5.32;;
42196;SDS011;27866;48.146;17.098;2022-09-29T23:22:07;8.18;;;5.93;;
42196;SDS011;27866;48.146;17.098;2022-09-29T23:26:18;11.10;;;6.85;;
42196;SDS011;27866;48.146;17.098;2022-09-29T23:30:29;11.80;;;6.85;;
42196;SDS011;27866;48.146;17.098;2022-09-29T23:34:44;10.18;;;6.43;;
42196;SDS011;27866;48.146;17.098;2022-09-29T23:38:55;10.40;;;6.25;;
42196;SDS011;27866;48.146;17.098;2022-09-29T23:43:19;6.93;;;5.43;;
42196;SDS011;27866;48.146;17.098;2022-09-29T23:47:30;8.00;;;5.18;;
42196;SDS011;27866;48.146;17.098;2022-09-29T23:51:42;6.47;;;4.55;;
42196;SDS011;27866;48.146;17.098;2022-09-29T23:55:59;6.40;;;4.00;;
